ARG1819 SAVE-SABE
Flight info
| Callsign | ARG1819 |
|---|---|
| Flight time | N/A |
| Altitude | 35000 |
| Route | ESQ UT657 BCA UW22 VALOS VALOS9Q |
| Aircraft | B738/M-SDE2E3FGHIRWXY/LB1 |
Departure
| Time | 2026-05-06 21:39 |
|---|---|
| Airport | Esquel Brigadier Antonio Parodi International Airport (SAVE) |
Arrival
| Time | N/A |
|---|---|
| Airport | Aeroparque Jorge Newbery (SABE) |
| Time | Latitude | Longitude | Altitude | Speed | Heading |
|---|---|---|---|---|---|
| 2026-05-06 21:11 | -42.90630 | -71.14637 | 2635 ft | 0 kts | 271° |
| 2026-05-06 21:34 | -42.90631 | -71.14642 | 2635 ft | 2 kts | 260° |
| 2026-05-06 21:34 | -42.90651 | -71.14656 | 2635 ft | 5 kts | 176° |
| 2026-05-06 21:34 | -42.90690 | -71.14612 | 2635 ft | 10 kts | 141° |
| 2026-05-06 21:35 | -42.90730 | -71.14570 | 2636 ft | 4 kts | 135° |
| 2026-05-06 21:35 | -42.90739 | -71.14450 | 2636 ft | 21 kts | 84° |
| 2026-05-06 21:35 | -42.90707 | -71.14252 | 2635 ft | 21 kts | 63° |
| 2026-05-06 21:35 | -42.90632 | -71.14083 | 2634 ft | 21 kts | 58° |
| 2026-05-06 21:36 | -42.90556 | -71.13921 | 2636 ft | 20 kts | 57° |
| 2026-05-06 21:36 | -42.90481 | -71.13766 | 2636 ft | 19 kts | 57° |
| 2026-05-06 21:36 | -42.90409 | -71.13613 | 2638 ft | 20 kts | 57° |
| 2026-05-06 21:36 | -42.90328 | -71.13443 | 2638 ft | 23 kts | 57° |
| 2026-05-06 21:37 | -42.90234 | -71.13247 | 2637 ft | 26 kts | 57° |
| 2026-05-06 21:37 | -42.90127 | -71.13024 | 2635 ft | 29 kts | 56° |
| 2026-05-06 21:37 | -42.90010 | -71.12781 | 2635 ft | 31 kts | 57° |
| 2026-05-06 21:37 | -42.89898 | -71.12543 | 2636 ft | 29 kts | 57° |
| 2026-05-06 21:38 | -42.89823 | -71.12413 | 2638 ft | 14 kts | 34° |
| 2026-05-06 21:38 | -42.89797 | -71.12351 | 2637 ft | 6 kts | 134° |
| 2026-05-06 21:38 | -42.89821 | -71.12372 | 2638 ft | 5 kts | 243° |
| 2026-05-06 21:38 | -42.89906 | -71.12558 | 2636 ft | 56 kts | 237° |
| 2026-05-06 21:39 | -42.90258 | -71.13296 | 2638 ft | 126 kts | 237° |
| 2026-05-06 21:39 | -42.90830 | -71.14502 | 2865 ft | 164 kts | 237° |
| 2026-05-06 21:39 | -42.91513 | -71.15804 | 3574 ft | 175 kts | 227° |
| 2026-05-06 21:39 | -42.92565 | -71.16764 | 4239 ft | 194 kts | 199° |
| 2026-05-06 21:40 | -42.93937 | -71.16881 | 4744 ft | 208 kts | 171° |
| 2026-05-06 21:40 | -42.95284 | -71.15918 | 4967 ft | 238 kts | 136° |
| 2026-05-06 21:40 | -42.96083 | -71.13856 | 5306 ft | 262 kts | 105° |
| 2026-05-06 21:40 | -42.96018 | -71.11277 | 5721 ft | 283 kts | 74° |
| 2026-05-06 21:41 | -42.95221 | -71.08799 | 6531 ft | 288 kts | 62° |
| 2026-05-06 21:41 | -42.94199 | -71.06427 | 7359 ft | 291 kts | 59° |
| 2026-05-06 21:41 | -42.93068 | -71.03943 | 8193 ft | 296 kts | 59° |
| 2026-05-06 21:41 | -42.90307 | -70.97818 | 10216 ft | 305 kts | 61° |
| 2026-05-06 21:42 | -42.89171 | -70.95254 | 10469 ft | 328 kts | 59° |
| 2026-05-06 21:42 | -42.87893 | -70.92536 | 10679 ft | 351 kts | 58° |
| 2026-05-06 21:42 | -42.83703 | -70.83494 | 12759 ft | 369 kts | 59° |
| 2026-05-06 21:42 | -42.78372 | -70.71190 | 15438 ft | 383 kts | 60° |
| 2026-05-06 21:43 | -42.73003 | -70.58527 | 18180 ft | 392 kts | 59° |
| 2026-05-06 21:43 | -42.67472 | -70.45573 | 20470 ft | 399 kts | 57° |
| 2026-05-06 21:43 | -42.61795 | -70.32374 | 22566 ft | 410 kts | 56° |
| 2026-05-06 21:43 | -42.58755 | -70.25327 | 23600 ft | 414 kts | 56° |
| 2026-05-06 21:44 | -42.57295 | -70.21947 | 23999 ft | 417 kts | 56° |
| 2026-05-06 21:44 | -42.55827 | -70.18551 | 24397 ft | 419 kts | 55° |
| 2026-05-06 21:44 | -42.54349 | -70.15137 | 24804 ft | 420 kts | 55° |
| 2026-05-06 21:44 | -42.52864 | -70.11711 | 25201 ft | 422 kts | 55° |
| 2026-05-06 21:45 | -42.51370 | -70.08270 | 25577 ft | 425 kts | 55° |
| 2026-05-06 21:45 | -42.49870 | -70.04819 | 25971 ft | 426 kts | 55° |
| 2026-05-06 21:45 | -42.48361 | -70.01349 | 26350 ft | 428 kts | 55° |
| 2026-05-06 21:45 | -42.46862 | -69.97907 | 26703 ft | 430 kts | 55° |
| 2026-05-06 21:46 | -42.45316 | -69.94362 | 27053 ft | 433 kts | 55° |
| 2026-05-06 21:46 | -42.43801 | -69.90893 | 27390 ft | 435 kts | 55° |
| 2026-05-06 21:46 | -42.42258 | -69.87363 | 27721 ft | 437 kts | 55° |
| 2026-05-06 21:46 | -42.40705 | -69.83816 | 28050 ft | 439 kts | 55° |
| 2026-05-06 21:47 | -42.39143 | -69.80250 | 28363 ft | 441 kts | 55° |
| 2026-05-06 21:47 | -42.37571 | -69.76666 | 28671 ft | 444 kts | 55° |
| 2026-05-06 21:47 | -42.35992 | -69.73071 | 28978 ft | 446 kts | 54° |
| 2026-05-06 21:47 | -42.34404 | -69.69460 | 29266 ft | 448 kts | 54° |
| 2026-05-06 21:48 | -42.32808 | -69.65836 | 29541 ft | 450 kts | 54° |
| 2026-05-06 21:48 | -42.31200 | -69.62187 | 29823 ft | 452 kts | 54° |
| 2026-05-06 21:48 | -42.29590 | -69.58540 | 30142 ft | 452 kts | 54° |
| 2026-05-06 21:48 | -42.27984 | -69.54901 | 30508 ft | 450 kts | 55° |
| 2026-05-06 21:49 | -42.26380 | -69.51273 | 30843 ft | 449 kts | 55° |
| 2026-05-06 21:49 | -42.24777 | -69.47653 | 31149 ft | 450 kts | 55° |
| 2026-05-06 21:49 | -42.23172 | -69.44034 | 31471 ft | 449 kts | 55° |
| 2026-05-06 21:49 | -42.21566 | -69.40417 | 31799 ft | 449 kts | 55° |
| 2026-05-06 21:50 | -42.19965 | -69.36815 | 32133 ft | 447 kts | 55° |
| 2026-05-06 21:50 | -42.18362 | -69.33215 | 32457 ft | 447 kts | 56° |
| 2026-05-06 21:50 | -42.16763 | -69.29628 | 32763 ft | 446 kts | 56° |
| 2026-05-06 21:50 | -42.15164 | -69.26044 | 33064 ft | 446 kts | 56° |
| 2026-05-06 21:51 | -42.13566 | -69.22467 | 33394 ft | 444 kts | 56° |
| 2026-05-06 21:51 | -42.11973 | -69.18906 | 33712 ft | 443 kts | 56° |
| 2026-05-06 21:51 | -42.10384 | -69.15358 | 33986 ft | 442 kts | 56° |
| 2026-05-06 21:51 | -42.08793 | -69.11810 | 34177 ft | 443 kts | 56° |
| 2026-05-06 21:52 | -42.07195 | -69.08253 | 34325 ft | 445 kts | 56° |
| 2026-05-06 21:52 | -42.05594 | -69.04690 | 34511 ft | 446 kts | 56° |
| 2026-05-06 21:52 | -42.03985 | -69.01115 | 34709 ft | 446 kts | 56° |
| 2026-05-06 21:52 | -42.02378 | -68.97548 | 34845 ft | 448 kts | 56° |
| 2026-05-06 21:53 | -41.91116 | -68.72668 | 34870 ft | 461 kts | 55° |
| 2026-05-06 21:53 | -41.77860 | -68.43631 | 34751 ft | 448 kts | 55° |
| 2026-05-06 21:54 | -41.72904 | -68.32856 | 34775 ft | 444 kts | 55° |
| 2026-05-06 21:54 | -41.65068 | -68.15896 | 34766 ft | 449 kts | 55° |